sensor_id;sensor_type;location;lat;lon;timestamp;P1;durP1;ratioP1;P2;durP2;ratioP2
41946;SDS011;27638;42.184;24.848;2024-03-22T00:00:16;10.27;;;7.28;;
41946;SDS011;27638;42.184;24.848;2024-03-22T00:02:41;8.95;;;6.05;;
41946;SDS011;27638;42.184;24.848;2024-03-22T00:05:07;10.10;;;7.00;;
41946;SDS011;27638;42.184;24.848;2024-03-22T00:07:33;10.32;;;6.80;;
41946;SDS011;27638;42.184;24.848;2024-03-22T00:09:58;11.27;;;7.30;;
41946;SDS011;27638;42.184;24.848;2024-03-22T00:12:25;11.80;;;7.05;;
41946;SDS011;27638;42.184;24.848;2024-03-22T00:14:50;12.68;;;7.18;;
41946;SDS011;27638;42.184;24.848;2024-03-22T00:17:19;11.82;;;6.53;;
41946;SDS011;27638;42.184;24.848;2024-03-22T00:19:45;11.50;;;8.65;;
41946;SDS011;27638;42.184;24.848;2024-03-22T00:22:10;12.45;;;7.45;;
41946;SDS011;27638;42.184;24.848;2024-03-22T00:24:36;10.50;;;6.78;;
41946;SDS011;27638;42.184;24.848;2024-03-22T00:27:01;11.98;;;7.05;;
41946;SDS011;27638;42.184;24.848;2024-03-22T00:29:27;8.82;;;7.07;;
41946;SDS011;27638;42.184;24.848;2024-03-22T00:31:52;8.40;;;6.95;;
41946;SDS011;27638;42.184;24.848;2024-03-22T00:34:18;18.60;;;7.63;;
41946;SDS011;27638;42.184;24.848;2024-03-22T00:36:44;12.93;;;7.97;;
41946;SDS011;27638;42.184;24.848;2024-03-22T00:39:10;11.93;;;7.70;;
41946;SDS011;27638;42.184;24.848;2024-03-22T00:41:36;13.18;;;7.47;;
41946;SDS011;27638;42.184;24.848;2024-03-22T00:44:01;12.95;;;7.53;;
41946;SDS011;27638;42.184;24.848;2024-03-22T00:46:27;13.98;;;7.57;;
41946;SDS011;27638;42.184;24.848;2024-03-22T00:48:52;13.50;;;7.95;;
41946;SDS011;27638;42.184;24.848;2024-03-22T00:51:18;11.77;;;7.35;;
41946;SDS011;27638;42.184;24.848;2024-03-22T00:53:43;12.02;;;7.47;;
41946;SDS011;27638;42.184;24.848;2024-03-22T00:56:09;10.85;;;6.88;;
41946;SDS011;27638;42.184;24.848;2024-03-22T00:58:35;13.43;;;8.13;;
41946;SDS011;27638;42.184;24.848;2024-03-22T01:01:00;12.45;;;7.35;;
41946;SDS011;27638;42.184;24.848;2024-03-22T01:03:26;14.00;;;8.20;;
41946;SDS011;27638;42.184;24.848;2024-03-22T01:05:51;14.20;;;8.25;;
41946;SDS011;27638;42.184;24.848;2024-03-22T01:08:16;10.82;;;6.88;;
41946;SDS011;27638;42.184;24.848;2024-03-22T01:10:42;11.35;;;6.72;;
41946;SDS011;27638;42.184;24.848;2024-03-22T01:13:07;12.30;;;7.25;;
41946;SDS011;27638;42.184;24.848;2024-03-22T01:15:33;14.68;;;8.40;;
41946;SDS011;27638;42.184;24.848;2024-03-22T01:17:59;14.27;;;8.68;;
41946;SDS011;27638;42.184;24.848;2024-03-22T01:20:24;11.30;;;6.75;;
41946;SDS011;27638;42.184;24.848;2024-03-22T01:22:50;11.57;;;7.43;;
41946;SDS011;27638;42.184;24.848;2024-03-22T01:25:15;11.77;;;7.20;;
41946;SDS011;27638;42.184;24.848;2024-03-22T01:27:41;10.27;;;6.72;;
41946;SDS011;27638;42.184;24.848;2024-03-22T01:30:07;14.93;;;8.10;;
41946;SDS011;27638;42.184;24.848;2024-03-22T01:32:33;15.07;;;8.05;;
41946;SDS011;27638;42.184;24.848;2024-03-22T01:34:59;13.88;;;8.02;;
41946;SDS011;27638;42.184;24.848;2024-03-22T01:37:25;12.30;;;6.88;;
41946;SDS011;27638;42.184;24.848;2024-03-22T01:39:50;10.88;;;6.80;;
41946;SDS011;27638;42.184;24.848;2024-03-22T01:42:16;12.93;;;7.68;;
41946;SDS011;27638;42.184;24.848;2024-03-22T01:44:42;11.38;;;7.13;;
41946;SDS011;27638;42.184;24.848;2024-03-22T01:47:07;11.45;;;7.28;;
41946;SDS011;27638;42.184;24.848;2024-03-22T01:49:33;12.23;;;7.35;;
41946;SDS011;27638;42.184;24.848;2024-03-22T01:51:59;11.23;;;7.40;;
41946;SDS011;27638;42.184;24.848;2024-03-22T01:54:24;15.32;;;7.82;;
41946;SDS011;27638;42.184;24.848;2024-03-22T01:56:50;13.85;;;9.35;;
41946;SDS011;27638;42.184;24.848;2024-03-22T01:59:15;18.08;;;11.30;;
41946;SDS011;27638;42.184;24.848;2024-03-22T02:01:42;14.95;;;10.02;;
41946;SDS011;27638;42.184;24.848;2024-03-22T02:04:07;13.25;;;10.45;;
41946;SDS011;27638;42.184;24.848;2024-03-22T02:06:33;15.50;;;10.88;;
41946;SDS011;27638;42.184;24.848;2024-03-22T02:08:58;21.00;;;13.55;;
41946;SDS011;27638;42.184;24.848;2024-03-22T02:11:27;19.55;;;13.13;;
41946;SDS011;27638;42.184;24.848;2024-03-22T02:13:54;17.83;;;11.20;;
41946;SDS011;27638;42.184;24.848;2024-03-22T02:16:19;15.60;;;9.45;;
41946;SDS011;27638;42.184;24.848;2024-03-22T02:18:45;13.90;;;9.65;;
41946;SDS011;27638;42.184;24.848;2024-03-22T02:21:10;14.50;;;9.70;;
41946;SDS011;27638;42.184;24.848;2024-03-22T02:23:36;13.10;;;9.68;;
41946;SDS011;27638;42.184;24.848;2024-03-22T02:26:03;14.07;;;9.35;;
41946;SDS011;27638;42.184;24.848;2024-03-22T02:28:30;18.65;;;10.45;;
41946;SDS011;27638;42.184;24.848;2024-03-22T02:30:57;18.50;;;10.10;;
41946;SDS011;27638;42.184;24.848;2024-03-22T02:33:23;16.75;;;10.70;;
41946;SDS011;27638;42.184;24.848;2024-03-22T02:35:49;17.98;;;10.68;;
41946;SDS011;27638;42.184;24.848;2024-03-22T02:38:15;24.25;;;12.40;;
41946;SDS011;27638;42.184;24.848;2024-03-22T02:40:42;20.23;;;12.60;;
41946;SDS011;27638;42.184;24.848;2024-03-22T02:43:09;19.92;;;12.25;;
41946;SDS011;27638;42.184;24.848;2024-03-22T02:45:34;23.20;;;13.73;;
41946;SDS011;27638;42.184;24.848;2024-03-22T02:48:00;23.65;;;12.95;;
41946;SDS011;27638;42.184;24.848;2024-03-22T02:50:25;22.80;;;13.77;;
41946;SDS011;27638;42.184;24.848;2024-03-22T02:52:51;23.52;;;13.07;;
41946;SDS011;27638;42.184;24.848;2024-03-22T02:55:16;21.92;;;12.40;;
41946;SDS011;27638;42.184;24.848;2024-03-22T02:57:42;19.83;;;12.48;;
41946;SDS011;27638;42.184;24.848;2024-03-22T03:00:07;21.38;;;13.80;;
41946;SDS011;27638;42.184;24.848;2024-03-22T03:02:33;20.80;;;12.45;;
41946;SDS011;27638;42.184;24.848;2024-03-22T03:04:59;23.15;;;13.07;;
41946;SDS011;27638;42.184;24.848;2024-03-22T03:07:25;21.02;;;12.68;;
41946;SDS011;27638;42.184;24.848;2024-03-22T03:09:50;21.10;;;12.05;;
41946;SDS011;27638;42.184;24.848;2024-03-22T03:12:16;22.60;;;13.02;;
41946;SDS011;27638;42.184;24.848;2024-03-22T03:14:42;19.85;;;12.63;;
41946;SDS011;27638;42.184;24.848;2024-03-22T03:17:07;17.70;;;11.27;;
41946;SDS011;27638;42.184;24.848;2024-03-22T03:19:33;21.67;;;11.00;;
41946;SDS011;27638;42.184;24.848;2024-03-22T03:21:58;20.35;;;10.57;;
41946;SDS011;27638;42.184;24.848;2024-03-22T03:24:24;17.15;;;10.57;;
41946;SDS011;27638;42.184;24.848;2024-03-22T03:26:49;20.75;;;12.38;;
41946;SDS011;27638;42.184;24.848;2024-03-22T03:29:15;17.85;;;10.50;;
41946;SDS011;27638;42.184;24.848;2024-03-22T03:31:40;20.02;;;12.07;;
41946;SDS011;27638;42.184;24.848;2024-03-22T03:34:06;24.88;;;13.73;;
41946;SDS011;27638;42.184;24.848;2024-03-22T03:36:31;16.63;;;9.82;;
41946;SDS011;27638;42.184;24.848;2024-03-22T03:38:57;14.65;;;8.80;;
41946;SDS011;27638;42.184;24.848;2024-03-22T03:41:22;14.80;;;8.98;;
41946;SDS011;27638;42.184;24.848;2024-03-22T03:43:48;15.15;;;9.63;;
41946;SDS011;27638;42.184;24.848;2024-03-22T03:46:13;16.05;;;10.80;;
41946;SDS011;27638;42.184;24.848;2024-03-22T03:48:38;14.02;;;10.00;;
41946;SDS011;27638;42.184;24.848;2024-03-22T03:51:04;17.17;;;10.57;;
41946;SDS011;27638;42.184;24.848;2024-03-22T03:53:30;22.23;;;12.23;;
41946;SDS011;27638;42.184;24.848;2024-03-22T03:55:56;15.80;;;10.65;;
41946;SDS011;27638;42.184;24.848;2024-03-22T03:58:21;14.85;;;9.68;;
41946;SDS011;27638;42.184;24.848;2024-03-22T04:00:47;15.63;;;9.95;;
41946;SDS011;27638;42.184;24.848;2024-03-22T04:03:12;17.00;;;10.75;;
41946;SDS011;27638;42.184;24.848;2024-03-22T04:05:39;18.52;;;10.70;;
41946;SDS011;27638;42.184;24.848;2024-03-22T04:08:04;25.83;;;14.95;;
41946;SDS011;27638;42.184;24.848;2024-03-22T04:10:30;17.20;;;12.25;;
41946;SDS011;27638;42.184;24.848;2024-03-22T04:12:55;21.13;;;12.15;;
41946;SDS011;27638;42.184;24.848;2024-03-22T04:15:21;20.60;;;10.60;;
41946;SDS011;27638;42.184;24.848;2024-03-22T04:17:46;17.48;;;10.52;;
41946;SDS011;27638;42.184;24.848;2024-03-22T04:20:12;19.63;;;11.32;;
41946;SDS011;27638;42.184;24.848;2024-03-22T04:22:38;17.00;;;9.40;;
41946;SDS011;27638;42.184;24.848;2024-03-22T04:25:03;20.52;;;11.27;;
41946;SDS011;27638;42.184;24.848;2024-03-22T04:27:29;20.48;;;12.30;;
41946;SDS011;27638;42.184;24.848;2024-03-22T04:29:54;20.25;;;13.35;;
41946;SDS011;27638;42.184;24.848;2024-03-22T04:32:20;24.42;;;14.75;;
41946;SDS011;27638;42.184;24.848;2024-03-22T04:34:45;26.55;;;14.63;;
41946;SDS011;27638;42.184;24.848;2024-03-22T04:37:11;26.60;;;15.18;;
41946;SDS011;27638;42.184;24.848;2024-03-22T04:39:40;23.50;;;13.52;;
41946;SDS011;27638;42.184;24.848;2024-03-22T04:42:05;22.88;;;13.93;;
41946;SDS011;27638;42.184;24.848;2024-03-22T04:44:32;23.02;;;15.35;;
41946;SDS011;27638;42.184;24.848;2024-03-22T04:46:57;28.88;;;16.10;;
41946;SDS011;27638;42.184;24.848;2024-03-22T04:49:23;26.70;;;16.55;;
41946;SDS011;27638;42.184;24.848;2024-03-22T04:51:48;29.08;;;16.77;;
41946;SDS011;27638;42.184;24.848;2024-03-22T04:54:14;30.58;;;17.13;;
41946;SDS011;27638;42.184;24.848;2024-03-22T04:56:39;35.67;;;17.77;;
41946;SDS011;27638;42.184;24.848;2024-03-22T04:59:05;29.60;;;17.73;;
41946;SDS011;27638;42.184;24.848;2024-03-22T05:01:31;28.90;;;15.88;;
41946;SDS011;27638;42.184;24.848;2024-03-22T05:03:56;28.13;;;15.75;;
41946;SDS011;27638;42.184;24.848;2024-03-22T05:06:22;24.10;;;14.60;;
41946;SDS011;27638;42.184;24.848;2024-03-22T05:08:47;25.00;;;15.25;;
41946;SDS011;27638;42.184;24.848;2024-03-22T05:11:12;27.27;;;15.52;;
41946;SDS011;27638;42.184;24.848;2024-03-22T05:13:38;24.08;;;14.90;;
41946;SDS011;27638;42.184;24.848;2024-03-22T05:16:05;26.15;;;14.80;;
41946;SDS011;27638;42.184;24.848;2024-03-22T05:18:31;27.83;;;13.63;;
41946;SDS011;27638;42.184;24.848;2024-03-22T05:20:57;27.63;;;14.90;;
41946;SDS011;27638;42.184;24.848;2024-03-22T05:23:22;22.77;;;14.55;;
41946;SDS011;27638;42.184;24.848;2024-03-22T05:25:48;28.80;;;15.82;;
41946;SDS011;27638;42.184;24.848;2024-03-22T05:28:13;31.27;;;15.68;;
41946;SDS011;27638;42.184;24.848;2024-03-22T05:30:39;22.90;;;13.77;;
41946;SDS011;27638;42.184;24.848;2024-03-22T05:33:04;27.60;;;15.98;;
41946;SDS011;27638;42.184;24.848;2024-03-22T05:35:30;23.83;;;15.63;;
41946;SDS011;27638;42.184;24.848;2024-03-22T05:37:55;21.55;;;12.88;;
41946;SDS011;27638;42.184;24.848;2024-03-22T05:40:21;23.48;;;14.43;;
41946;SDS011;27638;42.184;24.848;2024-03-22T05:42:47;22.80;;;13.98;;
41946;SDS011;27638;42.184;24.848;2024-03-22T05:45:12;22.20;;;13.98;;
41946;SDS011;27638;42.184;24.848;2024-03-22T05:47:38;24.48;;;13.27;;
41946;SDS011;27638;42.184;24.848;2024-03-22T05:50:03;23.25;;;13.45;;
41946;SDS011;27638;42.184;24.848;2024-03-22T05:52:33;23.67;;;12.95;;
41946;SDS011;27638;42.184;24.848;2024-03-22T05:54:58;24.00;;;13.05;;
41946;SDS011;27638;42.184;24.848;2024-03-22T05:57:24;26.63;;;13.60;;
41946;SDS011;27638;42.184;24.848;2024-03-22T05:59:49;20.08;;;10.30;;
41946;SDS011;27638;42.184;24.848;2024-03-22T06:02:15;21.08;;;12.02;;
41946;SDS011;27638;42.184;24.848;2024-03-22T06:04:41;24.33;;;12.25;;
41946;SDS011;27638;42.184;24.848;2024-03-22T06:07:07;22.77;;;12.20;;
41946;SDS011;27638;42.184;24.848;2024-03-22T06:09:32;22.25;;;12.38;;
41946;SDS011;27638;42.184;24.848;2024-03-22T06:12:14;24.98;;;12.93;;
41946;SDS011;27638;42.184;24.848;2024-03-22T06:14:41;21.85;;;13.88;;
41946;SDS011;27638;42.184;24.848;2024-03-22T06:17:09;23.02;;;12.82;;
41946;SDS011;27638;42.184;24.848;2024-03-22T06:19:36;22.45;;;12.85;;
41946;SDS011;27638;42.184;24.848;2024-03-22T06:22:02;19.35;;;12.68;;
41946;SDS011;27638;42.184;24.848;2024-03-22T06:24:27;22.60;;;12.20;;
41946;SDS011;27638;42.184;24.848;2024-03-22T06:26:53;18.38;;;10.93;;
41946;SDS011;27638;42.184;24.848;2024-03-22T06:29:19;20.10;;;11.88;;
41946;SDS011;27638;42.184;24.848;2024-03-22T06:31:44;16.60;;;11.10;;
41946;SDS011;27638;42.184;24.848;2024-03-22T06:34:10;16.27;;;10.27;;
41946;SDS011;27638;42.184;24.848;2024-03-22T06:36:36;16.02;;;9.82;;
41946;SDS011;27638;42.184;24.848;2024-03-22T06:39:01;14.90;;;9.68;;
41946;SDS011;27638;42.184;24.848;2024-03-22T06:41:31;16.92;;;10.77;;
41946;SDS011;27638;42.184;24.848;2024-03-22T06:43:56;16.80;;;9.75;;
41946;SDS011;27638;42.184;24.848;2024-03-22T06:46:23;16.17;;;9.85;;
41946;SDS011;27638;42.184;24.848;2024-03-22T06:48:49;19.63;;;10.35;;
41946;SDS011;27638;42.184;24.848;2024-03-22T06:51:15;15.73;;;10.45;;
41946;SDS011;27638;42.184;24.848;2024-03-22T06:53:41;16.92;;;10.32;;
41946;SDS011;27638;42.184;24.848;2024-03-22T06:56:06;17.52;;;10.98;;
41946;SDS011;27638;42.184;24.848;2024-03-22T06:58:34;17.92;;;11.70;;
41946;SDS011;27638;42.184;24.848;2024-03-22T07:01:06;17.20;;;10.88;;
41946;SDS011;27638;42.184;24.848;2024-03-22T07:03:32;17.15;;;10.73;;
41946;SDS011;27638;42.184;24.848;2024-03-22T07:05:58;16.08;;;10.52;;
41946;SDS011;27638;42.184;24.848;2024-03-22T07:08:24;18.67;;;11.00;;
41946;SDS011;27638;42.184;24.848;2024-03-22T07:10:50;17.27;;;10.30;;
41946;SDS011;27638;42.184;24.848;2024-03-22T07:13:18;21.27;;;11.50;;
41946;SDS011;27638;42.184;24.848;2024-03-22T07:15:44;16.13;;;10.10;;
41946;SDS011;27638;42.184;24.848;2024-03-22T07:18:10;17.65;;;10.20;;
41946;SDS011;27638;42.184;24.848;2024-03-22T07:20:35;16.70;;;9.95;;
41946;SDS011;27638;42.184;24.848;2024-03-22T07:23:01;16.05;;;10.15;;
41946;SDS011;27638;42.184;24.848;2024-03-22T07:25:27;16.52;;;10.82;;
41946;SDS011;27638;42.184;24.848;2024-03-22T07:27:52;13.73;;;10.05;;
41946;SDS011;27638;42.184;24.848;2024-03-22T07:30:17;15.27;;;9.10;;
41946;SDS011;27638;42.184;24.848;2024-03-22T07:32:43;15.23;;;9.50;;
41946;SDS011;27638;42.184;24.848;2024-03-22T07:35:12;16.05;;;9.35;;
41946;SDS011;27638;42.184;24.848;2024-03-22T07:37:38;13.02;;;9.30;;
41946;SDS011;27638;42.184;24.848;2024-03-22T07:40:03;11.95;;;7.95;;
41946;SDS011;27638;42.184;24.848;2024-03-22T07:42:30;12.02;;;8.27;;
41946;SDS011;27638;42.184;24.848;2024-03-22T07:44:56;12.73;;;8.23;;
41946;SDS011;27638;42.184;24.848;2024-03-22T07:47:21;13.13;;;8.00;;
41946;SDS011;27638;42.184;24.848;2024-03-22T07:49:47;12.23;;;7.80;;
41946;SDS011;27638;42.184;24.848;2024-03-22T07:52:12;12.68;;;8.45;;
41946;SDS011;27638;42.184;24.848;2024-03-22T07:54:38;10.10;;;6.85;;
41946;SDS011;27638;42.184;24.848;2024-03-22T07:57:03;11.10;;;7.47;;
41946;SDS011;27638;42.184;24.848;2024-03-22T07:59:29;11.43;;;7.80;;
41946;SDS011;27638;42.184;24.848;2024-03-22T08:01:54;10.18;;;7.53;;
41946;SDS011;27638;42.184;24.848;2024-03-22T08:04:20;13.00;;;8.57;;
41946;SDS011;27638;42.184;24.848;2024-03-22T08:06:45;13.60;;;8.15;;
41946;SDS011;27638;42.184;24.848;2024-03-22T08:09:11;13.40;;;8.13;;
41946;SDS011;27638;42.184;24.848;2024-03-22T08:11:37;13.50;;;8.50;;
41946;SDS011;27638;42.184;24.848;2024-03-22T08:14:02;11.13;;;7.80;;
41946;SDS011;27638;42.184;24.848;2024-03-22T08:16:31;16.02;;;10.52;;
41946;SDS011;27638;42.184;24.848;2024-03-22T08:18:57;13.82;;;10.23;;
41946;SDS011;27638;42.184;24.848;2024-03-22T08:21:23;12.32;;;8.88;;
41946;SDS011;27638;42.184;24.848;2024-03-22T08:23:50;10.02;;;7.28;;
41946;SDS011;27638;42.184;24.848;2024-03-22T08:26:16;11.43;;;7.63;;
41946;SDS011;27638;42.184;24.848;2024-03-22T08:28:41;11.73;;;7.57;;
41946;SDS011;27638;42.184;24.848;2024-03-22T08:31:07;11.15;;;7.22;;
41946;SDS011;27638;42.184;24.848;2024-03-22T08:33:32;14.18;;;8.13;;
41946;SDS011;27638;42.184;24.848;2024-03-22T08:35:58;11.57;;;7.95;;
41946;SDS011;27638;42.184;24.848;2024-03-22T08:38:23;10.70;;;7.88;;
41946;SDS011;27638;42.184;24.848;2024-03-22T08:40:49;14.68;;;8.13;;
41946;SDS011;27638;42.184;24.848;2024-03-22T08:43:15;18.13;;;8.60;;
41946;SDS011;27638;42.184;24.848;2024-03-22T08:45:41;11.77;;;7.25;;
41946;SDS011;27638;42.184;24.848;2024-03-22T08:48:07;12.50;;;8.00;;
41946;SDS011;27638;42.184;24.848;2024-03-22T08:50:33;11.45;;;7.60;;
41946;SDS011;27638;42.184;24.848;2024-03-22T08:52:59;13.27;;;7.18;;
41946;SDS011;27638;42.184;24.848;2024-03-22T08:55:28;10.45;;;7.15;;
41946;SDS011;27638;42.184;24.848;2024-03-22T08:57:54;12.05;;;7.57;;
41946;SDS011;27638;42.184;24.848;2024-03-22T09:00:19;9.70;;;6.32;;
41946;SDS011;27638;42.184;24.848;2024-03-22T09:02:45;9.32;;;6.05;;
41946;SDS011;27638;42.184;24.848;2024-03-22T09:05:10;10.57;;;5.70;;
41946;SDS011;27638;42.184;24.848;2024-03-22T09:07:36;11.60;;;7.47;;
41946;SDS011;27638;42.184;24.848;2024-03-22T09:10:02;9.00;;;5.40;;
41946;SDS011;27638;42.184;24.848;2024-03-22T09:12:27;11.98;;;6.75;;
41946;SDS011;27638;42.184;24.848;2024-03-22T09:14:53;12.07;;;6.63;;
41946;SDS011;27638;42.184;24.848;2024-03-22T09:17:18;9.93;;;6.30;;
41946;SDS011;27638;42.184;24.848;2024-03-22T09:19:44;10.27;;;6.85;;
41946;SDS011;27638;42.184;24.848;2024-03-22T09:22:09;8.43;;;5.78;;
41946;SDS011;27638;42.184;24.848;2024-03-22T09:24:35;8.68;;;5.82;;
41946;SDS011;27638;42.184;24.848;2024-03-22T09:27:00;10.27;;;7.07;;
41946;SDS011;27638;42.184;24.848;2024-03-22T09:29:26;9.70;;;6.85;;
41946;SDS011;27638;42.184;24.848;2024-03-22T09:31:51;11.88;;;7.57;;
41946;SDS011;27638;42.184;24.848;2024-03-22T09:34:16;11.30;;;7.07;;
41946;SDS011;27638;42.184;24.848;2024-03-22T09:36:42;13.23;;;7.57;;
41946;SDS011;27638;42.184;24.848;2024-03-22T09:39:07;10.98;;;6.97;;
41946;SDS011;27638;42.184;24.848;2024-03-22T09:41:33;9.10;;;6.15;;
41946;SDS011;27638;42.184;24.848;2024-03-22T09:44:07;11.93;;;7.05;;
41946;SDS011;27638;42.184;24.848;2024-03-22T09:46:38;9.00;;;5.93;;
41946;SDS011;27638;42.184;24.848;2024-03-22T09:49:05;9.18;;;5.25;;
41946;SDS011;27638;42.184;24.848;2024-03-22T09:51:32;10.20;;;5.70;;
41946;SDS011;27638;42.184;24.848;2024-03-22T09:53:59;8.65;;;5.13;;
41946;SDS011;27638;42.184;24.848;2024-03-22T09:56:26;7.28;;;5.25;;
41946;SDS011;27638;42.184;24.848;2024-03-22T09:58:55;9.55;;;5.10;;
41946;SDS011;27638;42.184;24.848;2024-03-22T10:01:22;7.13;;;4.68;;
41946;SDS011;27638;42.184;24.848;2024-03-22T10:03:48;7.15;;;4.30;;
41946;SDS011;27638;42.184;24.848;2024-03-22T10:06:16;6.45;;;3.72;;
41946;SDS011;27638;42.184;24.848;2024-03-22T10:08:42;5.63;;;3.17;;
41946;SDS011;27638;42.184;24.848;2024-03-22T10:11:08;5.85;;;4.22;;
41946;SDS011;27638;42.184;24.848;2024-03-22T10:13:33;7.55;;;4.53;;
41946;SDS011;27638;42.184;24.848;2024-03-22T10:15:58;7.22;;;4.43;;
41946;SDS011;27638;42.184;24.848;2024-03-22T10:18:24;8.05;;;4.32;;
41946;SDS011;27638;42.184;24.848;2024-03-22T10:21:03;8.77;;;3.95;;
41946;SDS011;27638;42.184;24.848;2024-03-22T10:23:30;5.35;;;3.08;;
41946;SDS011;27638;42.184;24.848;2024-03-22T10:25:56;6.63;;;3.42;;
41946;SDS011;27638;42.184;24.848;2024-03-22T10:28:23;5.30;;;3.45;;
41946;SDS011;27638;42.184;24.848;2024-03-22T10:30:50;4.93;;;3.50;;
41946;SDS011;27638;42.184;24.848;2024-03-22T10:33:18;6.15;;;3.40;;
41946;SDS011;27638;42.184;24.848;2024-03-22T10:35:44;10.48;;;4.13;;
41946;SDS011;27638;42.184;24.848;2024-03-22T10:38:12;4.68;;;3.60;;
41946;SDS011;27638;42.184;24.848;2024-03-22T10:40:38;6.68;;;3.28;;
41946;SDS011;27638;42.184;24.848;2024-03-22T10:43:05;5.72;;;2.90;;
41946;SDS011;27638;42.184;24.848;2024-03-22T10:45:31;4.75;;;2.80;;
41946;SDS011;27638;42.184;24.848;2024-03-22T10:47:58;3.88;;;3.03;;
41946;SDS011;27638;42.184;24.848;2024-03-22T10:50:27;3.63;;;2.67;;
41946;SDS011;27638;42.184;24.848;2024-03-22T10:52:56;2.88;;;2.33;;
41946;SDS011;27638;42.184;24.848;2024-03-22T10:55:27;4.68;;;2.17;;
41946;SDS011;27638;42.184;24.848;2024-03-22T10:57:56;5.25;;;2.70;;
41946;SDS011;27638;42.184;24.848;2024-03-22T11:00:28;4.45;;;2.45;;
41946;SDS011;27638;42.184;24.848;2024-03-22T11:02:55;4.95;;;2.40;;
41946;SDS011;27638;42.184;24.848;2024-03-22T11:05:21;5.25;;;2.65;;
41946;SDS011;27638;42.184;24.848;2024-03-22T11:07:46;3.50;;;2.00;;
41946;SDS011;27638;42.184;24.848;2024-03-22T11:10:13;3.35;;;2.10;;
41946;SDS011;27638;42.184;24.848;2024-03-22T11:12:40;4.32;;;2.63;;
41946;SDS011;27638;42.184;24.848;2024-03-22T11:15:06;4.10;;;2.65;;
41946;SDS011;27638;42.184;24.848;2024-03-22T11:17:32;3.75;;;2.33;;
41946;SDS011;27638;42.184;24.848;2024-03-22T11:19:57;3.53;;;2.10;;
41946;SDS011;27638;42.184;24.848;2024-03-22T11:22:25;5.03;;;2.08;;
41946;SDS011;27638;42.184;24.848;2024-03-22T11:24:52;2.85;;;1.63;;
41946;SDS011;27638;42.184;24.848;2024-03-22T11:27:18;3.05;;;2.00;;
41946;SDS011;27638;42.184;24.848;2024-03-22T11:29:44;2.47;;;1.95;;
41946;SDS011;27638;42.184;24.848;2024-03-22T11:32:11;32.67;;;5.20;;
41946;SDS011;27638;42.184;24.848;2024-03-22T11:34:37;7.93;;;1.83;;
41946;SDS011;27638;42.184;24.848;2024-03-22T11:37:04;4.57;;;2.58;;
41946;SDS011;27638;42.184;24.848;2024-03-22T11:39:32;2.10;;;1.85;;
41946;SDS011;27638;42.184;24.848;2024-03-22T11:42:00;2.55;;;2.00;;
41946;SDS011;27638;42.184;24.848;2024-03-22T11:44:27;2.58;;;1.70;;
41946;SDS011;27638;42.184;24.848;2024-03-22T11:46:53;2.45;;;1.73;;
41946;SDS011;27638;42.184;24.848;2024-03-22T11:49:19;3.05;;;2.40;;
41946;SDS011;27638;42.184;24.848;2024-03-22T11:51:45;2.42;;;1.92;;
41946;SDS011;27638;42.184;24.848;2024-03-22T11:54:10;3.25;;;1.88;;
41946;SDS011;27638;42.184;24.848;2024-03-22T11:56:36;3.30;;;1.88;;
41946;SDS011;27638;42.184;24.848;2024-03-22T11:59:02;2.65;;;1.42;;
41946;SDS011;27638;42.184;24.848;2024-03-22T12:01:28;3.00;;;2.15;;
41946;SDS011;27638;42.184;24.848;2024-03-22T12:03:54;2.45;;;1.58;;
41946;SDS011;27638;42.184;24.848;2024-03-22T12:06:21;3.38;;;1.95;;
41946;SDS011;27638;42.184;24.848;2024-03-22T12:08:47;2.00;;;1.80;;
41946;SDS011;27638;42.184;24.848;2024-03-22T12:11:12;2.85;;;1.58;;
41946;SDS011;27638;42.184;24.848;2024-03-22T12:13:39;2.65;;;1.75;;
41946;SDS011;27638;42.184;24.848;2024-03-22T12:16:04;3.22;;;1.80;;
41946;SDS011;27638;42.184;24.848;2024-03-22T12:18:31;3.22;;;1.70;;
41946;SDS011;27638;42.184;24.848;2024-03-22T12:20:57;2.53;;;1.88;;
41946;SDS011;27638;42.184;24.848;2024-03-22T12:23:23;3.03;;;2.03;;
41946;SDS011;27638;42.184;24.848;2024-03-22T12:25:49;1.85;;;1.55;;
41946;SDS011;27638;42.184;24.848;2024-03-22T12:28:16;2.90;;;1.73;;
41946;SDS011;27638;42.184;24.848;2024-03-22T12:30:41;2.53;;;1.65;;
41946;SDS011;27638;42.184;24.848;2024-03-22T12:33:08;1.88;;;1.30;;
41946;SDS011;27638;42.184;24.848;2024-03-22T12:35:39;2.55;;;1.70;;
41946;SDS011;27638;42.184;24.848;2024-03-22T12:38:05;1.80;;;1.40;;
41946;SDS011;27638;42.184;24.848;2024-03-22T12:40:30;1.77;;;1.60;;
41946;SDS011;27638;42.184;24.848;2024-03-22T12:42:58;2.58;;;1.50;;
41946;SDS011;27638;42.184;24.848;2024-03-22T12:45:23;2.75;;;1.70;;
41946;SDS011;27638;42.184;24.848;2024-03-22T12:47:49;1.83;;;1.50;;
41946;SDS011;27638;42.184;24.848;2024-03-22T12:50:14;2.72;;;1.92;;
41946;SDS011;27638;42.184;24.848;2024-03-22T12:52:40;2.88;;;1.58;;
41946;SDS011;27638;42.184;24.848;2024-03-22T12:55:05;2.03;;;1.40;;
41946;SDS011;27638;42.184;24.848;2024-03-22T12:57:31;2.10;;;1.52;;
41946;SDS011;27638;42.184;24.848;2024-03-22T12:59:57;2.72;;;1.40;;
41946;SDS011;27638;42.184;24.848;2024-03-22T13:02:23;2.28;;;1.70;;
41946;SDS011;27638;42.184;24.848;2024-03-22T13:04:51;4.05;;;1.88;;
41946;SDS011;27638;42.184;24.848;2024-03-22T13:07:18;3.70;;;1.60;;
41946;SDS011;27638;42.184;24.848;2024-03-22T13:09:44;2.55;;;1.60;;
41946;SDS011;27638;42.184;24.848;2024-03-22T13:12:10;3.33;;;1.75;;
41946;SDS011;27638;42.184;24.848;2024-03-22T13:14:35;21.35;;;3.40;;
41946;SDS011;27638;42.184;24.848;2024-03-22T13:17:01;28.45;;;3.72;;
41946;SDS011;27638;42.184;24.848;2024-03-22T13:19:26;1.92;;;1.60;;
41946;SDS011;27638;42.184;24.848;2024-03-22T13:21:52;1.90;;;1.65;;
41946;SDS011;27638;42.184;24.848;2024-03-22T13:24:17;1.63;;;1.48;;
41946;SDS011;27638;42.184;24.848;2024-03-22T13:26:44;2.28;;;2.03;;
41946;SDS011;27638;42.184;24.848;2024-03-22T13:29:09;3.03;;;1.40;;
41946;SDS011;27638;42.184;24.848;2024-03-22T13:31:35;2.47;;;1.75;;
41946;SDS011;27638;42.184;24.848;2024-03-22T13:34:00;2.00;;;1.80;;
41946;SDS011;27638;42.184;24.848;2024-03-22T13:36:26;1.65;;;1.50;;
41946;SDS011;27638;42.184;24.848;2024-03-22T13:38:51;2.85;;;1.70;;
41946;SDS011;27638;42.184;24.848;2024-03-22T13:41:17;3.40;;;1.70;;
41946;SDS011;27638;42.184;24.848;2024-03-22T13:43:42;2.22;;;1.88;;
41946;SDS011;27638;42.184;24.848;2024-03-22T13:46:09;2.45;;;1.75;;
41946;SDS011;27638;42.184;24.848;2024-03-22T13:48:40;2.03;;;1.70;;
41946;SDS011;27638;42.184;24.848;2024-03-22T13:51:05;3.00;;;1.77;;
41946;SDS011;27638;42.184;24.848;2024-03-22T13:53:31;2.53;;;1.60;;
41946;SDS011;27638;42.184;24.848;2024-03-22T13:55:56;4.05;;;1.80;;
41946;SDS011;27638;42.184;24.848;2024-03-22T13:58:21;2.13;;;1.60;;
41946;SDS011;27638;42.184;24.848;2024-03-22T14:00:47;2.03;;;1.73;;
41946;SDS011;27638;42.184;24.848;2024-03-22T14:03:13;1.85;;;1.50;;
41946;SDS011;27638;42.184;24.848;2024-03-22T14:05:38;2.28;;;1.70;;
41946;SDS011;27638;42.184;24.848;2024-03-22T14:08:04;2.40;;;1.83;;
41946;SDS011;27638;42.184;24.848;2024-03-22T14:10:30;1.63;;;1.33;;
41946;SDS011;27638;42.184;24.848;2024-03-22T14:12:58;1.65;;;1.50;;